Ridge, New York
Current Conditions -  °F | °C
As of 1:56 PM on Thursday 23 Oct 2014 (Local Time) from KHWV Reporting Station
Light Rain Light Rain  
Wind Chill: 53°   Ceiling: 1800
Heat Index: 53°   Visibility: 3mi
Dew Point: 48°   Wind: 16mph
Humidity: 83%   Direction: 340°NNW
Pressure: 29.63"   Gusts: 24mph
Location:  40.89°N, 72.89°W
Report Text: KHWV 231756Z AUTO 34014G21KT 3SM -RA OVC018 12/09 A2963 RMK AO2 RAB47 SLP033 P0000 60000 T01170089 10128 20111 58003 TSNO
Loading
Personal Weather Stations






























Interactive Weather Map
Tropical Storm Tracking
New forecast layout! Learn more

10-Day Weather Forecast

Advertisements
Track Severe Weather on mobile